Time;durP1;ratioP1;P1;durP2;ratioP2;P2;SDS_P1;SDS_P2;PMS_P1;PMS_P2;Temp;Humidity;BMP_temperature;BMP_pressure;BME280_temperature;BME280_humidity;BME280_pressure;Samples;Min_cycle;Max_cycle;Signal;HPM_P1;HPM_P2
2023/01/25 00:02:12;;;;;;;;;59.25;42.75;;;;;8.64;100.00;103268.16;5016577;28;45647;-78
2023/01/25 00:04:37;;;;;;;;;55.75;45.75;;;;;8.52;100.00;103262.38;5016923;28;45386;-78
2023/01/25 00:07:04;;;;;;;;;60.50;47.75;;;;;8.34;100.00;103265.94;5019517;28;45354;-78
2023/01/25 00:09:29;;;;;;;;;56.75;44.50;;;;;8.31;100.00;103259.81;5013309;28;45433;-78
2023/01/25 00:11:56;;;;;;;;;58.00;45.00;;;;;8.42;100.00;103265.59;5019598;28;45376;-78
2023/01/25 00:14:22;;;;;;;;;65.25;48.00;;;;;8.48;100.00;103263.47;5037701;28;45325;-78
2023/01/25 00:16:47;;;;;;;;;64.25;43.25;;;;;8.39;100.00;103271.16;5019634;28;45360;-78
2023/01/25 00:19:13;;;;;;;;;57.00;43.00;;;;;8.37;100.00;103249.56;5037168;28;45170;-78
2023/01/25 00:21:39;;;;;;;;;64.00;45.75;;;;;8.25;100.00;103254.66;5036729;28;48003;-78
2023/01/25 00:24:05;;;;;;;;;49.50;43.25;;;;;8.08;100.00;103260.84;5036027;28;45157;-78
2023/01/25 00:26:32;;;;;;;;;61.00;41.50;;;;;8.11;100.00;103255.28;5017923;28;45408;-78
2023/01/25 00:28:58;;;;;;;;;65.00;44.50;;;;;8.19;100.00;103253.97;5021034;28;45326;-78
2023/01/25 00:31:33;;;;;;;;;42.50;33.50;;;;;8.10;100.00;103256.25;5021681;28;46448;-78
2023/01/25 00:34:23;;;;;;;;;60.75;47.00;;;;;8.16;100.00;103258.69;5018482;28;45386;-78
2023/01/25 00:36:54;;;;;;;;;53.25;39.00;;;;;8.12;100.00;103266.03;5011008;28;45222;-78
2023/01/25 00:39:19;;;;;;;;;63.75;46.75;;;;;7.98;100.00;103257.69;5020710;28;45665;-78
2023/01/25 00:41:45;;;;;;;;;60.25;42.50;;;;;7.74;100.00;103256.97;5019760;28;45240;-78
2023/01/25 00:44:10;;;;;;;;;59.00;42.25;;;;;7.66;100.00;103248.34;5035226;28;45519;-81
2023/01/25 00:46:35;;;;;;;;;64.75;48.75;;;;;7.70;100.00;103262.59;5019380;28;45978;-78
2023/01/25 00:49:01;;;;;;;;;70.75;51.50;;;;;7.71;100.00;103250.84;5014703;28;45385;-78
2023/01/25 00:51:26;;;;;;;;;67.00;47.75;;;;;7.88;100.00;103255.50;5007142;28;46983;-77
2023/01/25 00:53:52;;;;;;;;;66.00;51.00;;;;;7.84;100.00;103257.44;5013543;28;45251;-78
2023/01/25 00:56:18;;;;;;;;;79.00;51.00;;;;;7.76;100.00;103251.50;5022216;28;45494;-77
2023/01/25 00:58:43;;;;;;;;;70.25;50.25;;;;;7.57;100.00;103256.88;5013442;28;45376;-78
2023/01/25 01:01:09;;;;;;;;;70.50;49.00;;;;;7.58;100.00;103261.34;5037655;28;47424;-78
2023/01/25 01:03:35;;;;;;;;;73.25;55.00;;;;;7.46;100.00;103253.72;5017974;28;45422;-77
2023/01/25 01:06:05;;;;;;;;;62.00;48.25;;;;;7.52;100.00;103258.91;5022007;28;45260;-78
2023/01/25 01:08:33;;;;;;;;;66.25;48.50;;;;;7.57;100.00;103242.47;5033187;28;45513;-78
2023/01/25 01:11:04;;;;;;;;;61.75;43.25;;;;;7.58;100.00;103255.03;5014015;28;46113;-78
2023/01/25 01:13:31;;;;;;;;;70.50;52.50;;;;;7.66;100.00;103250.16;5016844;28;45250;-78
2023/01/25 01:16:01;;;;;;;;;64.50;45.75;;;;;7.54;100.00;103248.00;5020941;28;45416;-78
2023/01/25 01:18:27;;;;;;;;;73.00;51.50;;;;;7.59;100.00;103243.28;5030684;28;45452;-77
2023/01/25 01:20:53;;;;;;;;;76.50;53.75;;;;;7.63;100.00;103251.19;5038272;28;47059;-77
2023/01/25 01:23:19;;;;;;;;;66.25;50.50;;;;;7.64;100.00;103231.28;5018754;28;45749;-77
2023/01/25 01:25:45;;;;;;;;;69.75;50.25;;;;;7.64;100.00;103244.81;5023207;28;45309;-78
2023/01/25 01:28:11;;;;;;;;;71.50;54.00;;;;;7.61;100.00;103247.66;5015455;28;45460;-77
2023/01/25 01:30:38;;;;;;;;;76.50;55.75;;;;;7.57;100.00;103254.16;5021012;28;46409;-77
2023/01/25 01:33:04;;;;;;;;;66.50;47.00;;;;;7.54;100.00;103246.16;5014763;28;45307;-77
2023/01/25 01:35:30;;;;;;;;;70.75;49.50;;;;;7.37;100.00;103249.63;5038702;28;45324;-78
2023/01/25 01:37:56;;;;;;;;;72.00;53.25;;;;;7.35;100.00;103250.63;5032013;28;45535;-77
2023/01/25 01:40:21;;;;;;;;;71.25;51.00;;;;;7.49;100.00;103236.50;5013852;28;45654;-77
2023/01/25 01:43:00;;;;;;;;;72.50;54.50;;;;;7.72;100.00;103255.31;5009382;28;45368;-78
2023/01/25 01:45:47;;;;;;;;;66.25;52.25;;;;;7.57;100.00;103256.88;5028391;28;45320;-77
2023/01/25 01:48:18;;;;;;;;;80.50;58.25;;;;;7.57;100.00;103256.88;5029841;28;45261;-77
2023/01/25 01:50:44;;;;;;;;;60.25;44.75;;;;;7.63;100.00;103262.00;5018595;28;46913;-77
2023/01/25 01:53:10;;;;;;;;;74.25;51.75;;;;;7.57;100.00;103243.34;5012358;28;45437;-77
2023/01/25 01:55:36;;;;;;;;;74.50;53.00;;;;;7.69;100.00;103258.13;5022453;28;45346;-78
2023/01/25 01:58:02;;;;;;;;;67.00;52.75;;;;;7.68;100.00;103254.53;5017785;28;45749;-78
2023/01/25 02:00:31;;;;;;;;;76.75;54.75;;;;;7.74;100.00;103265.09;5037459;28;47296;-78
2023/01/25 02:02:58;;;;;;;;;72.75;49.25;;;;;7.66;100.00;103259.16;5019531;28;45342;-79
2023/01/25 02:05:26;;;;;;;;;75.25;54.25;;;;;7.65;100.00;103264.63;5017098;28;45382;-78
2023/01/25 02:07:54;;;;;;;;;75.25;56.25;;;;;7.40;100.00;103267.53;5014735;28;45223;-78
2023/01/25 02:10:23;;;;;;;;;75.75;55.00;;;;;7.48;100.00;103262.66;5013218;28;46538;-78
2023/01/25 02:12:49;;;;;;;;;69.75;52.50;;;;;7.46;100.00;103266.38;5035184;28;45365;-78
2023/01/25 02:15:15;;;;;;;;;66.75;52.00;;;;;7.51;100.00;103261.66;5023874;28;45256;-78
2023/01/25 02:17:41;;;;;;;;;67.50;52.00;;;;;7.63;100.00;103272.81;5016965;28;45207;-78
2023/01/25 02:20:25;;;;;;;;;79.00;57.50;;;;;7.46;100.00;103275.38;5022172;28;47059;-78
2023/01/25 02:23:02;;;;;;;;;66.75;53.25;;;;;7.39;100.00;103265.78;5013991;28;45362;-77
2023/01/25 02:25:28;;;;;;;;;71.00;54.00;;;;;7.41;100.00;103269.28;5021061;28;45460;-78
2023/01/25 02:28:03;;;;;;;;;76.75;54.00;;;;;7.44;100.00;103274.59;5036073;28;45470;-78
2023/01/25 02:30:29;;;;;;;;;70.00;53.00;;;;;7.43;100.00;103272.81;5021869;28;46586;-78
2023/01/25 02:32:55;;;;;;;;;71.25;52.25;;;;;7.33;100.00;103271.44;5013968;28;45280;-78
2023/01/25 02:35:36;;;;;;;;;74.25;53.75;;;;;7.22;100.00;103268.34;5022207;28;45449;-78
2023/01/25 02:38:03;;;;;;;;;71.25;54.25;;;;;7.14;100.00;103267.78;5014212;28;45269;-78
2023/01/25 02:40:33;;;;;;;;;75.00;56.75;;;;;7.20;100.00;103271.09;5021255;28;46720;-77
2023/01/25 02:42:58;;;;;;;;;77.25;54.75;;;;;7.28;100.00;103281.59;5019313;28;45721;-78
2023/01/25 02:45:28;;;;;;;;;72.25;52.25;;;;;7.39;100.00;103282.00;5030941;28;45387;-78
2023/01/25 02:47:53;;;;;;;;;72.25;55.00;;;;;7.27;100.00;103285.25;5016563;28;45467;-78
2023/01/25 02:50:19;;;;;;;;;74.25;56.25;;;;;7.18;100.00;103272.09;5023483;28;45698;-78
2023/01/25 02:52:44;;;;;;;;;79.50;59.75;;;;;7.19;100.00;103276.56;5028411;28;45556;-78
2023/01/25 02:55:10;;;;;;;;;77.25;56.25;;;;;7.15;100.00;103261.44;5022341;28;45318;-78
2023/01/25 02:57:35;;;;;;;;;73.25;55.25;;;;;7.25;100.00;103265.50;5018659;28;45659;-78
2023/01/25 03:00:00;;;;;;;;;77.25;57.00;;;;;7.26;100.00;103273.53;5034580;28;47391;-78
2023/01/25 03:02:26;;;;;;;;;71.25;52.50;;;;;7.37;100.00;103273.97;5018646;28;45393;-78
2023/01/25 03:04:51;;;;;;;;;69.50;53.00;;;;;7.20;100.00;103264.81;5021915;28;45331;-78
2023/01/25 03:07:16;;;;;;;;;80.75;58.75;;;;;7.14;100.00;103265.06;5019467;28;45264;-78
2023/01/25 03:09:42;;;;;;;;;72.25;57.50;;;;;7.09;100.00;103259.84;5021017;28;45401;-78
2023/01/25 03:12:07;;;;;;;;;74.50;54.00;;;;;7.04;100.00;103260.06;5018584;28;45436;-79
2023/01/25 03:14:33;;;;;;;;;76.75;52.75;;;;;7.24;100.00;103263.72;5025241;28;45224;-78
2023/01/25 03:16:58;;;;;;;;;78.00;56.50;;;;;7.38;100.00;103264.88;5019630;28;46339;-78
2023/01/25 03:19:23;;;;;;;;;75.00;52.50;;;;;7.22;100.00;103276.44;5039504;28;46508;-78
2023/01/25 03:21:49;;;;;;;;;69.50;52.25;;;;;7.03;100.00;103255.59;5020847;28;45580;-78
2023/01/25 03:24:14;;;;;;;;;74.75;56.00;;;;;7.15;100.00;103267.72;5020113;28;45377;-78
2023/01/25 03:29:23;;;;;;;;;77.75;59.25;;;;;7.15;100.00;103258.72;5025043;28;45403;-79
2023/01/25 03:31:49;;;;;;;;;79.50;54.50;;;;;7.08;100.00;103268.03;5032384;28;45449;-78
2023/01/25 03:34:14;;;;;;;;;80.00;59.00;;;;;7.02;100.00;103251.13;5024895;28;45339;-78
2023/01/25 03:36:39;;;;;;;;;75.25;54.75;;;;;6.99;100.00;103259.38;5022903;28;45528;-79
2023/01/25 03:39:05;;;;;;;;;78.75;59.25;;;;;6.95;100.00;103254.13;5015289;28;45358;-78
2023/01/25 03:41:30;;;;;;;;;63.25;45.25;;;;;7.03;100.00;103263.69;5019940;28;45389;-78
2023/01/25 03:43:55;;;;;;;;;70.00;55.50;;;;;7.19;100.00;103255.81;5016760;28;45380;-78
2023/01/25 03:46:21;;;;;;;;;78.00;54.50;;;;;7.26;100.00;103259.13;5036517;28;45345;-77
2023/01/25 03:48:46;;;;;;;;;76.25;56.00;;;;;7.18;100.00;103254.06;5016213;28;45561;-76
2023/01/25 03:51:11;;;;;;;;;80.75;60.25;;;;;7.00;100.00;103254.84;5021296;28;45420;-77
2023/01/25 03:53:37;;;;;;;;;75.50;52.75;;;;;6.94;100.00;103247.84;5017604;28;45486;-77
2023/01/25 03:56:08;;;;;;;;;78.50;55.25;;;;;6.92;100.00;103244.38;5022393;28;45271;-77
2023/01/25 03:58:35;;;;;;;;;81.00;58.00;;;;;6.92;100.00;103241.66;5016469;28;45597;-77
2023/01/25 04:01:01;;;;;;;;;85.00;59.50;;;;;6.91;100.00;103239.00;5023839;28;45429;-78
2023/01/25 04:03:28;;;;;;;;;74.50;56.50;;;;;7.01;100.00;103243.94;5015884;28;45675;-77
2023/01/25 04:05:54;;;;;;;;;83.00;59.75;;;;;7.04;100.00;103246.53;5023857;28;45397;-77
2023/01/25 04:08:21;;;;;;;;;71.00;50.75;;;;;7.00;100.00;103250.31;5033893;28;45880;-77
2023/01/25 04:10:54;;;;;;;;;77.50;57.00;;;;;6.96;100.00;103243.28;5023230;28;45509;-74
2023/01/25 04:13:20;;;;;;;;;78.00;59.50;;;;;7.03;100.00;103244.78;5034874;28;45683;-77
2023/01/25 04:15:46;;;;;;;;;78.50;57.25;;;;;7.06;100.00;103241.06;5022992;28;45322;-76
2023/01/25 04:18:12;;;;;;;;;88.25;59.25;;;;;7.11;100.00;103252.56;5021060;28;45543;-76
2023/01/25 04:20:37;;;;;;;;;72.50;51.50;;;;;7.11;100.00;103241.75;5022463;28;45338;-80
2023/01/25 04:23:03;;;;;;;;;74.00;55.25;;;;;7.25;100.00;103238.44;5020928;28;45512;-80
2023/01/25 04:25:28;;;;;;;;;82.75;59.00;;;;;7.18;100.00;103243.25;5024344;28;45631;-76
2023/01/25 04:27:54;;;;;;;;;66.00;47.25;;;;;7.29;100.00;103248.19;5037248;28;46966;-79
2023/01/25 04:30:19;;;;;;;;;74.00;55.25;;;;;7.20;100.00;103246.78;5024353;28;45458;-80
2023/01/25 04:32:45;;;;;;;;;70.00;51.00;;;;;7.07;100.00;103247.38;5017615;28;45461;-80
2023/01/25 04:35:10;;;;;;;;;71.25;53.75;;;;;7.06;100.00;103253.72;5026348;28;45310;-80
2023/01/25 04:37:36;;;;;;;;;79.00;56.50;;;;;7.03;100.00;103244.78;5021591;28;47214;-81
2023/01/25 04:40:02;;;;;;;;;79.00;55.50;;;;;7.02;100.00;103251.13;5024653;28;44810;-81
2023/01/25 04:42:27;;;;;;;;;77.25;52.50;;;;;6.98;100.00;103249.50;5024009;28;45224;-80
2023/01/25 04:44:52;;;;;;;;;72.75;56.00;;;;;7.13;100.00;103245.28;5025647;28;45399;-80
2023/01/25 04:47:18;;;;;;;;;70.00;51.50;;;;;7.24;100.00;103237.56;5035197;28;47090;-81
2023/01/25 04:49:43;;;;;;;;;75.50;55.25;;;;;7.28;100.00;103238.31;5014556;28;45219;-80
2023/01/25 04:52:08;;;;;;;;;77.00;55.00;;;;;7.23;100.00;103234.94;5008725;28;46123;-80
2023/01/25 04:54:34;;;;;;;;;77.25;55.25;;;;;7.18;100.00;103242.38;5026742;28;45211;-80
2023/01/25 04:56:59;;;;;;;;;63.25;45.50;;;;;7.18;100.00;103236.94;5014599;28;45676;-79
2023/01/25 04:59:24;;;;;;;;;70.50;48.25;;;;;7.24;100.00;103231.28;5021855;28;45621;-82
2023/01/25 05:01:49;;;;;;;;;72.75;51.25;;;;;7.28;100.00;103235.63;5022420;28;45430;-80
2023/01/25 05:04:15;;;;;;;;;61.75;43.00;;;;;7.29;100.00;103232.84;5019625;28;45429;-81
2023/01/25 05:06:40;;;;;;;;;76.00;49.25;;;;;7.20;100.00;103227.84;5032473;28;48471;-80
2023/01/25 05:09:06;;;;;;;;;73.25;52.50;;;;;7.35;100.00;103239.81;5015202;28;45446;-77
2023/01/25 05:11:31;;;;;;;;;64.00;48.00;;;;;7.34;100.00;103238.94;5017143;28;45374;-77
2023/01/25 05:13:56;;;;;;;;;52.25;42.25;;;;;7.15;100.00;103231.69;5012684;28;45475;-77
2023/01/25 05:16:22;;;;;;;;;63.75;43.50;;;;;7.09;100.00;103231.94;5031334;28;46735;-77
2023/01/25 05:18:47;;;;;;;;;65.50;49.00;;;;;7.09;100.00;103231.94;5019865;28;45374;-77
2023/01/25 05:23:56;;;;;;;;;51.75;43.75;;;;;7.04;100.00;103238.44;5020991;28;45377;-77
2023/01/25 05:29:06;;;;;;;;;65.50;48.50;;;;;7.29;100.00;103224.75;5019090;28;45524;-78
2023/01/25 05:31:31;;;;;;;;;65.25;47.50;;;;;7.13;100.00;103230.88;5036338;28;45381;-80
2023/01/25 05:33:56;;;;;;;;;66.00;49.50;;;;;7.13;100.00;103233.56;5018435;28;45377;-77
2023/01/25 05:36:22;;;;;;;;;71.25;53.50;;;;;7.00;100.00;103227.81;5020186;28;46791;-78
2023/01/25 05:38:47;;;;;;;;;71.75;51.00;;;;;7.06;100.00;103232.97;5025841;28;45659;-79
2023/01/25 05:41:13;;;;;;;;;59.75;46.00;;;;;7.08;100.00;103230.19;5037282;28;45395;-78
2023/01/25 05:43:38;;;;;;;;;61.75;44.50;;;;;6.90;100.00;103216.50;5017636;28;45366;-80
2023/01/25 05:46:04;;;;;;;;;68.00;51.50;;;;;7.10;100.00;103225.59;5020936;28;48075;-77
2023/01/25 05:48:30;;;;;;;;;67.50;50.00;;;;;7.29;100.00;103219.34;5014973;28;45179;-77
2023/01/25 05:50:59;;;;;;;;;69.25;48.25;;;;;7.47;100.00;103233.84;5023545;28;45261;-76
2023/01/25 05:53:25;;;;;;;;;62.75;47.00;;;;;7.47;100.00;103223.03;5014073;28;45383;-78
2023/01/25 05:55:50;;;;;;;;;64.50;47.50;;;;;7.50;100.00;103222.91;5023975;28;45384;-76
2023/01/25 05:58:16;;;;;;;;;65.50;48.50;;;;;7.48;100.00;103216.69;5030293;28;45328;-77
2023/01/25 06:00:41;;;;;;;;;58.50;45.75;;;;;7.29;100.00;103216.63;5021312;28;45374;-79
2023/01/25 06:03:07;;;;;;;;;61.75;46.00;;;;;7.32;100.00;103218.31;5019381;28;45527;-78
2023/01/25 06:05:32;;;;;;;;;60.50;44.25;;;;;7.37;100.00;103228.00;5018310;28;45493;-78
2023/01/25 06:07:58;;;;;;;;;59.00;45.75;;;;;7.31;100.00;103217.44;5017119;28;45513;-78
2023/01/25 06:10:23;;;;;;;;;63.25;45.50;;;;;7.45;100.00;103215.97;5018280;28;45442;-78
2023/01/25 06:12:50;;;;;;;;;63.25;46.00;;;;;7.44;100.00;103217.78;5018221;28;45292;-78
2023/01/25 06:15:15;;;;;;;;;62.25;46.00;;;;;7.56;100.00;103216.34;5019425;28;48098;-77
2023/01/25 06:17:41;;;;;;;;;51.50;38.50;;;;;7.47;100.00;103225.75;5034969;28;45946;-78
2023/01/25 06:20:06;;;;;;;;;52.00;41.50;;;;;7.48;100.00;103211.28;5019635;28;45261;-78
2023/01/25 06:22:32;;;;;;;;;44.00;37.25;;;;;7.61;100.00;103219.72;5016132;28;45690;-77
2023/01/25 06:24:57;;;;;;;;;52.75;40.25;;;;;7.63;100.00;103212.41;5018221;28;46720;-78
2023/01/25 06:27:22;;;;;;;;;46.25;33.25;;;;;7.63;100.00;103212.41;5029526;28;46415;-77
2023/01/25 06:29:49;;;;;;;;;50.25;37.50;;;;;7.62;100.00;103205.25;5012280;28;45747;-77
2023/01/25 06:32:15;;;;;;;;;44.50;30.50;;;;;7.47;100.00;103209.50;5017326;28;45503;-76
2023/01/25 06:34:40;;;;;;;;;32.50;28.25;;;;;7.28;100.00;103208.59;5016628;28;46431;-79
2023/01/25 06:37:06;;;;;;;;;22.00;22.00;;;;;7.16;100.00;103215.38;5019609;28;45420;-77
2023/01/25 06:39:31;;;;;;;;;21.00;17.75;;;;;6.99;100.00;103202.63;5028736;28;45364;-78
2023/01/25 06:41:56;;;;;;;;;26.25;15.50;;;;;6.82;100.00;103205.16;5017934;28;45229;-77
2023/01/25 06:44:22;;;;;;;;;32.25;26.75;;;;;6.70;100.00;103202.09;5015719;28;45813;-77
2023/01/25 06:46:47;;;;;;;;;25.00;21.25;;;;;6.79;100.00;103213.41;5030501;28;45829;-79
2023/01/25 06:49:13;;;;;;;;;30.75;24.50;;;;;7.01;100.00;103208.81;5018332;28;45723;-78
2023/01/25 06:51:38;;;;;;;;;26.00;23.50;;;;;7.30;100.00;103213.00;5017025;28;45527;-78
2023/01/25 06:54:03;;;;;;;;;33.00;26.00;;;;;7.45;100.00;103199.72;5014246;28;48136;-79
2023/01/25 06:56:31;;;;;;;;;26.75;22.75;;;;;7.35;100.00;103193.84;5015611;28;45474;-78
2023/01/25 06:58:57;;;;;;;;;32.00;27.75;;;;;7.25;100.00;103203.28;5012715;28;45246;-79
2023/01/25 07:01:26;;;;;;;;;30.75;25.50;;;;;7.37;100.00;103200.97;5032831;28;45470;-78
2023/01/25 07:03:54;;;;;;;;;31.75;21.50;;;;;7.31;100.00;103184.09;5016657;28;45469;-77
2023/01/25 07:06:20;;;;;;;;;30.50;25.25;;;;;7.27;100.00;103196.88;5002016;28;45338;-77
2023/01/25 07:08:46;;;;;;;;;26.75;22.75;;;;;7.34;100.00;103194.78;5018537;28;45360;-78
2023/01/25 07:11:12;;;;;;;;;25.25;21.00;;;;;7.23;100.00;103187.13;5020860;28;45457;-76
2023/01/25 07:13:40;;;;;;;;;29.00;20.50;;;;;7.30;100.00;103204.88;5015373;28;45637;-81
2023/01/25 07:16:07;;;;;;;;;29.25;23.50;;;;;7.05;100.00;103190.66;5029243;28;45424;-80
2023/01/25 07:18:36;;;;;;;;;27.75;25.75;;;;;6.95;100.00;103206.38;5015053;28;45477;-79
2023/01/25 07:21:11;;;;;;;;;27.00;24.25;;;;;7.12;100.00;103193.97;5021916;28;45219;-78
2023/01/25 07:23:37;;;;;;;;;25.00;25.00;;;;;7.17;100.00;103183.81;5014830;28;45586;-80
2023/01/25 07:26:04;;;;;;;;;32.00;25.50;;;;;7.06;100.00;103197.81;5021018;28;45473;-78
2023/01/25 07:28:31;;;;;;;;;29.75;23.00;;;;;7.18;100.00;103186.47;5027533;28;45655;-77
2023/01/25 07:31:04;;;;;;;;;41.75;33.75;;;;;6.97;100.00;103188.28;5024736;28;45615;-78
2023/01/25 07:33:30;;;;;;;;;33.75;25.00;;;;;7.08;100.00;103189.66;5031545;28;48065;-77
2023/01/25 07:35:59;;;;;;;;;33.00;25.50;;;;;7.11;100.00;103200.31;5024662;28;45306;-76
2023/01/25 07:38:24;;;;;;;;;40.00;26.75;;;;;7.20;100.00;103210.75;5018659;28;45556;-79
2023/01/25 07:40:52;;;;;;;;;31.50;26.50;;;;;7.29;100.00;103200.41;5024685;28;45393;-78
2023/01/25 07:43:17;;;;;;;;;33.50;24.25;;;;;7.37;100.00;103205.47;5016265;28;47135;-79
2023/01/25 07:45:47;;;;;;;;;31.00;23.00;;;;;7.46;100.00;103206.88;5024527;28;45248;-78
2023/01/25 07:48:13;;;;;;;;;38.50;26.75;;;;;7.38;100.00;103199.97;5017805;28;45472;-78
2023/01/25 07:50:40;;;;;;;;;34.50;27.00;;;;;7.25;100.00;103195.19;5023856;28;45681;-78
2023/01/25 07:53:06;;;;;;;;;30.75;20.25;;;;;7.27;100.00;103193.31;5013962;28;46482;-77
2023/01/25 07:55:31;;;;;;;;;30.50;23.25;;;;;7.22;100.00;103195.34;5020686;28;45215;-77
2023/01/25 07:57:57;;;;;;;;;29.75;19.75;;;;;7.24;100.00;103204.25;5021134;28;45323;-78
2023/01/25 08:00:22;;;;;;;;;35.75;31.75;;;;;7.39;100.00;103203.56;5023431;28;45381;-80
2023/01/25 08:02:51;;;;;;;;;41.75;36.50;;;;;7.29;100.00;103202.22;5021407;28;46564;-78
2023/01/25 08:05:17;;;;;;;;;42.50;38.25;;;;;7.39;100.00;103198.16;5019386;28;45408;-81
2023/01/25 08:07:42;;;;;;;;;32.00;30.25;;;;;7.19;100.00;103195.47;5020091;28;45255;-79
2023/01/25 08:10:08;;;;;;;;;31.00;24.50;;;;;7.03;100.00;103201.53;5013998;28;45477;-78
2023/01/25 08:12:34;;;;;;;;;44.25;32.75;;;;;7.18;100.00;103188.28;5033814;28;47664;-78
2023/01/25 08:15:00;;;;;;;;;41.75;37.25;;;;;7.25;100.00;103201.47;5016233;28;45328;-78
2023/01/25 08:17:30;;;;;;;;;41.75;34.50;;;;;7.03;100.00;103198.81;5018564;28;45417;-77
2023/01/25 08:19:57;;;;;;;;;43.50;34.75;;;;;6.80;100.00;103193.50;5021312;28;45490;-77
2023/01/25 08:22:22;;;;;;;;;43.25;32.00;;;;;6.72;100.00;103201.06;5018612;28;46352;-77
2023/01/25 08:24:49;;;;;;;;;28.25;20.50;;;;;6.84;100.00;103200.56;5021439;28;45311;-77
2023/01/25 08:27:14;;;;;;;;;39.75;25.00;;;;;6.80;100.00;103198.91;5017991;28;45291;-79
2023/01/25 08:29:40;;;;;;;;;43.50;31.75;;;;;6.89;100.00;103193.13;5021019;28;45386;-79
2023/01/25 08:32:06;;;;;;;;;37.25;31.75;;;;;7.04;100.00;103189.78;5020643;28;46426;-79
2023/01/25 08:34:33;;;;;;;;;44.50;35.25;;;;;7.11;100.00;103184.09;5020259;28;45291;-78
2023/01/25 08:36:58;;;;;;;;;35.75;29.25;;;;;7.06;100.00;103178.91;5020530;28;45433;-77
2023/01/25 08:39:24;;;;;;;;;47.00;35.75;;;;;6.88;100.00;103188.66;5023191;28;45227;-78
2023/01/25 08:41:49;;;;;;;;;37.75;31.00;;;;;7.01;100.00;103192.59;5034551;28;47167;-78
2023/01/25 08:44:15;;;;;;;;;33.50;26.50;;;;;7.19;100.00;103190.06;5022974;28;45421;-78
2023/01/25 08:46:40;;;;;;;;;50.25;37.25;;;;;7.18;100.00;103196.41;5020429;28;45359;-77
2023/01/25 08:49:06;;;;;;;;;40.75;35.75;;;;;6.80;100.00;103182.72;5013442;28;45398;-78
2023/01/25 08:51:32;;;;;;;;;40.25;36.00;;;;;6.95;100.00;103187.47;5026340;28;46086;-77
2023/01/25 08:54:10;;;;;;;;;43.50;29.75;;;;;6.99;100.00;103178.28;5013933;28;45248;-77
2023/01/25 08:56:37;;;;;;;;;33.50;23.50;;;;;6.99;100.00;103183.69;5013762;28;45453;-79
2023/01/25 08:59:02;;;;;;;;;25.75;23.50;;;;;6.87;100.00;103178.78;5018402;28;45495;-77
2023/01/25 09:01:28;;;;;;;;;31.00;24.75;;;;;6.77;100.00;103172.03;5021989;28;45437;-79
2023/01/25 09:03:53;;;;;;;;;34.00;29.25;;;;;6.98;100.00;103181.94;5017429;28;45210;-78
2023/01/25 09:06:19;;;;;;;;;34.50;26.50;;;;;6.91;100.00;103174.16;5014083;28;45528;-78
2023/01/25 09:08:44;;;;;;;;;44.50;35.00;;;;;7.01;100.00;103189.91;5019197;28;45484;-77
2023/01/25 09:11:13;;;;;;;;;41.75;27.25;;;;;6.95;100.00;103191.97;5008333;28;45392;-77
2023/01/25 09:13:42;;;;;;;;;29.50;27.25;;;;;6.67;100.00;103178.75;5013548;28;45339;-77
2023/01/25 09:16:13;;;;;;;;;32.00;27.25;;;;;6.89;100.00;103187.72;5018428;28;45771;-77
2023/01/25 09:18:40;;;;;;;;;24.75;24.50;;;;;6.75;100.00;103187.44;5021109;28;45334;-74
2023/01/25 09:21:07;;;;;;;;;29.25;24.75;;;;;6.77;100.00;103181.97;5021221;28;46103;-78
2023/01/25 09:23:32;;;;;;;;;25.25;22.50;;;;;6.73;100.00;103174.91;5017259;28;45292;-76
2023/01/25 09:25:59;;;;;;;;;26.25;24.00;;;;;6.92;100.00;103160.59;5037955;28;45502;-76
2023/01/25 09:28:26;;;;;;;;;32.50;25.00;;;;;7.20;100.00;103186.41;5016689;28;45644;-77
2023/01/25 09:31:00;;;;;;;;;38.00;30.50;;;;;7.03;100.00;103177.19;5022357;28;46404;-77
2023/01/25 09:33:27;;;;;;;;;26.75;25.25;;;;;6.85;100.00;103175.31;5016777;28;45489;-77
2023/01/25 09:35:53;;;;;;;;;42.50;35.25;;;;;7.01;100.00;103176.38;5012189;28;45389;-76
2023/01/25 09:38:18;;;;;;;;;29.00;23.50;;;;;7.05;100.00;103166.31;5016493;28;45401;-78
2023/01/25 09:40:56;;;;;;;;;31.00;24.75;;;;;7.12;100.00;103178.63;5029428;28;46994;-77
2023/01/25 09:43:41;;;;;;;;;37.00;30.00;;;;;7.09;100.00;103172.47;5015651;28;46354;-75
2023/01/25 09:46:30;;;;;;;;;34.75;28.75;;;;;6.78;100.00;103156.72;5037436;28;45273;-76
2023/01/25 09:49:14;;;;;;;;;39.25;35.00;;;;;6.30;100.00;103155.09;5013747;28;45612;-76
2023/01/25 09:51:50;;;;;;;;;41.50;31.25;;;;;6.21;100.00;103179.75;5035207;28;47094;-76
2023/01/25 09:54:19;;;;;;;;;40.00;32.25;;;;;5.95;100.00;103170.00;5014446;28;45381;-76
2023/01/25 09:56:48;;;;;;;;;46.25;31.75;;;;;6.35;100.00;103173.84;5018948;28;45715;-77
2023/01/25 09:59:18;;;;;;;;;44.25;32.50;;;;;6.54;100.00;103177.53;5015212;28;45382;-77
2023/01/25 10:01:56;;;;;;;;;38.00;31.00;;;;;6.76;100.00;103178.38;5019029;28;46372;-76
2023/01/25 10:04:41;;;;;;;;;44.00;38.25;;;;;6.89;100.00;103181.44;5019985;28;45382;-76
2023/01/25 10:07:17;;;;;;;;;43.75;35.00;;;;;6.74;100.00;103176.69;5016762;28;45377;-77
2023/01/25 10:10:21;;;;;;;;;35.00;31.25;;;;;6.37;100.00;103182.72;5016467;28;45368;-76
2023/01/25 10:12:46;;;;;;;;;31.50;31.25;;;;;6.37;100.00;103182.72;5016316;28;47125;-77
2023/01/25 10:15:27;;;;;;;;;38.00;34.75;;;;;6.29;100.00;103180.34;5014374;28;45327;-77
2023/01/25 10:18:14;;;;;;;;;32.50;29.75;;;;;6.07;100.00;103180.31;5019880;28;45365;-76
2023/01/25 10:20:47;;;;;;;;;33.50;26.00;;;;;6.08;100.00;103179.38;5029348;28;45445;-78
2023/01/25 10:23:24;;;;;;;;;26.00;22.00;;;;;5.75;100.00;103186.03;5015350;28;45571;-76
2023/01/25 10:25:59;;;;;;;;;32.75;28.75;;;;;5.74;100.00;103176.19;5012297;28;46589;-77
2023/01/25 10:28:24;;;;;;;;;29.25;29.25;;;;;5.63;100.00;103186.50;5016415;28;45343;-78
2023/01/25 10:30:59;;;;;;;;;33.50;31.00;;;;;5.77;100.00;103181.47;5021274;28;46017;-78
2023/01/25 10:33:27;;;;;;;;;46.50;32.50;;;;;5.47;100.00;103173.59;5014864;28;45554;-77
2023/01/25 10:35:55;;;;;;;;;40.00;34.00;;;;;5.87;100.00;103185.56;5013838;28;45191;-77
2023/01/25 10:38:35;;;;;;;;;48.00;33.25;;;;;6.27;100.00;103179.53;5017343;28;45524;-77
2023/01/25 10:41:15;;;;;;;;;39.00;30.50;;;;;6.20;100.00;103181.59;5022601;28;45633;-78
2023/01/25 10:43:40;;;;;;;;;57.00;39.75;;;;;6.07;100.00;103182.13;5016062;28;46220;-79
2023/01/25 10:46:22;;;;;;;;;47.00;35.25;;;;;6.04;100.00;103179.56;5021650;28;45389;-76
2023/01/25 10:48:48;;;;;;;;;32.50;26.50;;;;;5.82;100.00;103179.47;5011934;28;45438;-78
2023/01/25 10:51:43;;;;;;;;;33.75;26.75;;;;;6.06;100.00;103175.00;5020645;28;45656;-78
2023/01/25 10:54:14;;;;;;;;;47.50;40.75;;;;;6.31;100.00;103175.75;5010869;28;46945;-77
2023/01/25 10:56:42;;;;;;;;;40.25;39.00;;;;;6.48;100.00;103167.88;5026124;28;45754;-77
2023/01/25 10:59:19;;;;;;;;;62.50;40.00;;;;;6.50;100.00;103170.50;4998019;28;45465;-79
2023/01/25 11:01:44;;;;;;;;;47.50;41.50;;;;;6.34;100.00;103148.66;5017375;28;45441;-76
2023/01/25 11:04:34;;;;;;;;;32.50;32.50;;;;;6.27;100.00;103159.75;5022553;28;45656;-77
2023/01/25 11:07:04;;;;;;;;;50.25;38.75;;;;;6.53;100.00;103154.16;5010183;28;45383;-79
2023/01/25 11:09:29;;;;;;;;;47.00;35.50;;;;;6.28;100.00;103151.59;5018752;28;45444;-78
2023/01/25 11:12:14;;;;;;;;;29.75;26.25;;;;;5.80;100.00;103154.38;5033442;28;45475;-77
2023/01/25 11:14:39;;;;;;;;;60.75;47.75;;;;;5.75;100.00;103156.38;5022642;28;47149;-77
2023/01/25 11:17:05;;;;;;;;;42.50;39.50;;;;;5.94;100.00;103157.44;5031644;28;45486;-78
2023/01/25 11:19:32;;;;;;;;;68.00;49.25;;;;;5.77;100.00;103144.56;5035609;28;45499;-78
2023/01/25 11:21:59;;;;;;;;;54.25;42.50;;;;;5.83;100.00;103127.28;5019756;28;45591;-77